Time;durP1;ratioP1;P1;durP2;ratioP2;P2;SDS_P1;SDS_P2;PMS_P1;PMS_P2;Temp;Humidity;BMP_temperature;BMP_pressure;BME280_temperature;BME280_humidity;BME280_pressure;Samples;Min_cycle;Max_cycle;Signal;HPM_P1;HPM_P2
2022/10/16 00:01:25;;;;;;;12.50;7.78;;;;;;;9.52;100.00;100578.78;6347808;28;20047;-76
2022/10/16 00:04:26;;;;;;;15.05;6.72;;;;;;;9.56;100.00;100574.28;6346445;28;20100;-80
2022/10/16 00:07:27;;;;;;;11.23;6.18;;;;;;;9.55;100.00;100573.41;6347407;28;20441;-80
2022/10/16 00:10:27;;;;;;;10.93;6.43;;;;;;;9.54;100.00;100576.13;6347658;28;20040;-80
2022/10/16 00:13:28;;;;;;;12.32;6.60;;;;;;;9.57;100.00;100579.38;6345905;28;20052;-80
2022/10/16 00:16:30;;;;;;;15.35;7.68;;;;;;;9.60;100.00;100568.84;6347611;28;20067;-80
2022/10/16 00:19:30;;;;;;;14.35;7.47;;;;;;;9.58;100.00;100575.88;6347405;28;20047;-80
2022/10/16 00:22:32;;;;;;;12.40;6.82;;;;;;;9.60;100.00;100576.66;6345687;28;20036;-78
2022/10/16 00:25:33;;;;;;;18.20;8.17;;;;;;;9.62;100.00;100581.78;6350350;28;20447;-80
2022/10/16 00:28:34;;;;;;;10.48;6.53;;;;;;;9.61;100.00;100575.72;6351355;28;20039;-76
2022/10/16 00:31:35;;;;;;;14.75;7.60;;;;;;;9.62;100.00;100580.03;6351382;28;20536;-77
2022/10/16 00:34:36;;;;;;;13.63;7.10;;;;;;;9.66;100.00;100598.97;6352258;28;20122;-76
2022/10/16 00:37:37;;;;;;;11.32;6.50;;;;;;;9.67;100.00;100592.81;6352370;28;20118;-80
2022/10/16 00:40:38;;;;;;;13.85;7.38;;;;;;;9.65;100.00;100592.88;6334064;28;20058;-80
2022/10/16 00:43:43;;;;;;;12.32;6.90;;;;;;;9.66;100.00;100594.59;6351034;28;20035;-80
2022/10/16 00:46:44;;;;;;;12.50;7.55;;;;;;;9.61;100.00;100593.97;6350908;28;20040;-80
2022/10/16 00:49:46;;;;;;;10.80;7.15;;;;;;;9.58;100.00;100596.72;6351957;28;20063;-80
2022/10/16 00:52:49;;;;;;;16.23;7.68;;;;;;;9.59;100.00;100601.00;6350442;28;20048;-76
2022/10/16 00:55:50;;;;;;;12.73;6.47;;;;;;;9.55;100.00;100598.63;6350666;28;20097;-79
2022/10/16 00:58:51;;;;;;;13.05;6.88;;;;;;;9.51;100.00;100597.91;6350524;28;20406;-80
2022/10/16 01:01:53;;;;;;;12.63;7.07;;;;;;;9.50;100.00;100604.06;6351119;27;20475;-80
2022/10/16 01:04:54;;;;;;;12.23;6.63;;;;;;;9.51;100.00;100610.94;6351566;28;20506;-80
2022/10/16 01:08:30;;;;;;;12.27;6.93;;;;;;;9.48;100.00;100601.53;6350362;28;20040;-76
2022/10/16 01:11:38;;;;;;;10.80;6.78;;;;;;;9.44;100.00;100606.97;6350403;28;20084;-80
2022/10/16 01:14:42;;;;;;;12.55;6.53;;;;;;;9.43;100.00;100611.34;6351431;28;20465;-76
2022/10/16 01:17:52;;;;;;;11.07;6.07;;;;;;;9.39;100.00;100615.00;6351516;28;20043;-76
2022/10/16 01:21:03;;;;;;;15.60;6.93;;;;;;;9.35;100.00;100612.59;6333147;28;20056;-76
2022/10/16 01:24:45;;;;;;;13.60;7.57;;;;;;;9.34;100.00;100616.97;6350074;28;20036;-76
2022/10/16 01:27:48;;;;;;;9.80;5.82;;;;;;;9.28;100.00;100615.47;6350015;28;20063;-80
2022/10/16 01:30:53;;;;;;;11.38;5.68;;;;;;;9.28;100.00;100623.28;6350990;28;20040;-80
2022/10/16 01:34:12;;;;;;;13.05;6.97;;;;;;;9.26;100.00;100627.72;6349594;28;20043;-76
2022/10/16 01:37:19;;;;;;;9.73;6.30;;;;;;;9.23;100.00;100625.28;6351013;28;20039;-76
2022/10/16 01:40:23;;;;;;;16.02;7.40;;;;;;;9.24;100.00;100628.72;6366995;27;20062;-80
2022/10/16 01:43:28;;;;;;;12.43;6.93;;;;;;;9.20;100.00;100620.19;6350884;28;20047;-80
2022/10/16 01:46:31;;;;;;;12.05;7.00;;;;;;;9.23;100.00;100629.66;6349301;28;20056;-80
2022/10/16 01:49:36;;;;;;;13.02;7.47;;;;;;;9.22;100.00;100630.56;6350194;28;20062;-80
2022/10/16 01:52:40;;;;;;;11.93;6.38;;;;;;;9.19;100.00;100628.09;6348970;28;20077;-76
2022/10/16 01:55:45;;;;;;;10.88;7.25;;;;;;;9.15;100.00;100637.81;6350482;28;20039;-76
2022/10/16 01:58:52;;;;;;;11.70;7.10;;;;;;;9.13;100.00;100626.63;6350610;28;20506;-80
2022/10/16 02:01:59;;;;;;;13.38;7.05;;;;;;;9.13;100.00;100634.44;6349088;28;20070;-77
2022/10/16 02:05:15;;;;;;;13.82;7.50;;;;;;;9.11;100.00;100631.06;6350389;28;20135;-76
2022/10/16 02:08:16;;;;;;;12.63;6.68;;;;;;;9.05;100.00;100624.34;6350502;28;20124;-76
2022/10/16 02:11:17;;;;;;;11.20;7.10;;;;;;;8.99;100.00;100626.41;6349160;28;20051;-80
2022/10/16 02:14:18;;;;;;;13.70;7.07;;;;;;;8.98;100.00;100632.53;6348611;28;20139;-76
2022/10/16 02:17:20;;;;;;;12.20;6.77;;;;;;;8.96;100.00;100634.38;6350041;28;20040;-76
2022/10/16 02:20:27;;;;;;;9.90;6.53;;;;;;;8.93;100.00;100631.88;6365992;27;20051;-76
2022/10/16 02:23:43;;;;;;;10.68;6.10;;;;;;;8.83;100.00;100627.09;6349821;28;20092;-80
2022/10/16 02:27:24;;;;;;;12.65;6.80;;;;;;;8.82;100.00;100648.81;6348226;28;20471;-76
2022/10/16 02:30:32;;;;;;;13.13;6.70;;;;;;;8.73;100.00;100645.78;6321485;28;20048;-76
2022/10/16 02:33:35;;;;;;;11.05;6.35;;;;;;;8.63;100.00;100654.00;6288169;28;20054;-80
2022/10/16 02:36:36;;;;;;;13.30;6.70;;;;;;;8.54;100.00;100656.13;6348109;28;20098;-80
2022/10/16 02:39:38;;;;;;;12.40;6.72;;;;;;;8.50;100.00;100662.38;6348120;28;20515;-76
2022/10/16 02:42:40;;;;;;;10.15;5.53;;;;;;;8.41;100.00;100666.22;6347804;28;20155;-76
2022/10/16 02:45:41;;;;;;;10.75;6.55;;;;;;;8.36;100.00;100666.38;6346942;28;20127;-76
2022/10/16 02:48:42;;;;;;;10.57;5.25;;;;;;;8.34;100.00;100676.00;6348853;28;20050;-76
2022/10/16 02:51:42;;;;;;;12.57;6.05;;;;;;;8.36;100.00;100674.19;6349348;27;20042;-80
2022/10/16 02:54:43;;;;;;;10.88;5.88;;;;;;;8.28;100.00;100666.69;6364901;27;20047;-80
2022/10/16 02:57:44;;;;;;;11.60;5.95;;;;;;;8.18;100.00;100668.00;6349071;28;20050;-76
2022/10/16 03:00:45;;;;;;;11.75;5.63;;;;;;;8.18;100.00;100678.38;6330781;28;20055;-80
2022/10/16 03:03:46;;;;;;;11.50;6.13;;;;;;;8.12;100.00;100676.03;6348727;28;20046;-80
2022/10/16 03:06:47;;;;;;;9.90;5.07;;;;;;;8.13;100.00;100677.72;6347659;28;20279;-76
2022/10/16 03:09:47;;;;;;;10.65;6.05;;;;;;;8.05;100.00;100685.84;6348722;28;20051;-80
2022/10/16 03:12:48;;;;;;;10.20;5.75;;;;;;;7.99;100.00;100685.22;6348472;28;20063;-76
2022/10/16 03:15:49;;;;;;;12.02;6.18;;;;;;;7.91;100.00;100687.28;6347429;28;20071;-76
2022/10/16 03:18:50;;;;;;;11.27;6.30;;;;;;;7.85;100.00;100683.19;6347441;28;20125;-76
2022/10/16 03:21:51;;;;;;;9.27;5.40;;;;;;;7.87;100.00;100687.41;6381639;27;20059;-80
2022/10/16 03:24:51;;;;;;;8.27;5.00;;;;;;;7.81;100.00;100682.47;6348290;28;20713;-80
2022/10/16 03:27:52;;;;;;;8.18;5.05;;;;;;;7.79;100.00;100684.28;6347021;28;20101;-80
2022/10/16 03:30:53;;;;;;;8.73;5.25;;;;;;;7.73;100.00;100696.66;6347052;28;20035;-80
2022/10/16 03:33:53;;;;;;;8.85;5.50;;;;;;;7.71;100.00;100695.88;6347401;28;20123;-76
2022/10/16 03:36:56;;;;;;;8.57;5.35;;;;;;;7.66;100.00;100696.06;6346752;28;20035;-76
2022/10/16 03:39:59;;;;;;;11.25;6.38;;;;;;;7.66;100.00;100702.09;6347865;28;20048;-80
2022/10/16 03:42:59;;;;;;;12.20;6.22;;;;;;;7.66;100.00;100709.06;6347855;28;20032;-80
2022/10/16 03:46:00;;;;;;;7.18;5.10;;;;;;;7.62;100.00;100708.31;6346702;28;20069;-76
2022/10/16 03:49:01;;;;;;;10.82;6.47;;;;;;;7.53;100.00;100710.41;6346928;28;20148;-80
2022/10/16 03:52:02;;;;;;;8.35;6.18;;;;;;;7.53;100.00;100716.44;6346869;28;20075;-76
2022/10/16 03:55:02;;;;;;;9.43;5.20;;;;;;;7.44;100.00;100709.84;6347059;28;20452;-76
2022/10/16 03:58:06;;;;;;;8.45;5.20;;;;;;;7.40;100.00;100710.88;6345914;28;20114;-80
2022/10/16 04:01:07;;;;;;;11.43;4.53;;;;;;;7.41;100.00;100714.31;6346021;28;20046;-76
2022/10/16 04:04:07;;;;;;;12.40;6.07;;;;;;;7.43;100.00;100709.91;6347148;28;20042;-80
2022/10/16 04:07:08;;;;;;;10.32;5.35;;;;;;;7.43;100.00;100710.78;6345710;28;20036;-80
2022/10/16 04:10:09;;;;;;;12.05;6.18;;;;;;;7.44;100.00;100724.59;6345847;28;20040;-76
2022/10/16 04:13:11;;;;;;;12.07;6.55;;;;;;;7.40;100.00;100712.63;6345443;28;20597;-80
2022/10/16 04:16:11;;;;;;;11.70;6.78;;;;;;;7.34;100.00;100713.69;6345721;28;20039;-80
2022/10/16 04:19:16;;;;;;;15.93;6.70;;;;;;;7.34;100.00;100718.06;6347501;28;20044;-80
2022/10/16 04:22:16;;;;;;;14.40;6.88;;;;;;;7.33;100.00;100719.81;6347017;28;20101;-76
2022/10/16 04:25:17;;;;;;;12.25;6.68;;;;;;;7.34;100.00;100718.88;6345700;28;20040;-80
2022/10/16 04:28:18;;;;;;;13.00;7.10;;;;;;;7.36;100.00;100724.88;6345351;28;20108;-76
2022/10/16 04:31:18;;;;;;;16.77;7.53;;;;;;;7.40;100.00;100717.81;6346598;28;20050;-76
2022/10/16 04:34:19;;;;;;;11.27;6.10;;;;;;;7.35;100.00;100720.59;6346369;28;20120;-76
2022/10/16 04:37:23;;;;;;;15.43;8.55;;;;;;;7.40;100.00;100717.81;6347322;28;20031;-80
2022/10/16 04:40:28;;;;;;;25.42;12.63;;;;;;;7.37;100.00;100713.59;6329148;28;20376;-80
2022/10/16 04:43:28;;;;;;;35.28;14.02;;;;;;;7.43;100.00;100715.09;6347162;28;20468;-80
2022/10/16 04:46:29;;;;;;;25.35;12.70;;;;;;;7.40;100.00;100710.03;6346018;28;20069;-76
2022/10/16 04:49:30;;;;;;;22.73;11.30;;;;;;;7.44;100.00;100717.66;6363303;27;20147;-80
2022/10/16 04:52:31;;;;;;;16.00;8.15;;;;;;;7.49;100.00;100727.00;6347141;28;20044;-80
2022/10/16 04:55:32;;;;;;;16.60;8.68;;;;;;;7.52;100.00;100716.53;6345809;28;20039;-80
2022/10/16 04:58:33;;;;;;;10.23;6.72;;;;;;;7.51;100.00;100722.59;6347050;28;20043;-80
2022/10/16 05:01:33;;;;;;;13.63;6.90;;;;;;;7.51;100.00;100717.41;6347102;28;20053;-76
2022/10/16 05:04:34;;;;;;;10.85;6.25;;;;;;;7.54;100.00;100727.69;6345748;28;20095;-80
2022/10/16 05:07:35;;;;;;;11.20;6.57;;;;;;;7.58;100.00;100729.28;6345743;28;20089;-77
2022/10/16 05:10:35;;;;;;;10.63;6.18;;;;;;;7.51;100.00;100728.63;6330956;28;20047;-76
2022/10/16 05:13:36;;;;;;;14.20;6.97;;;;;;;7.54;100.00;100732.91;6350294;28;20500;-76
2022/10/16 05:16:37;;;;;;;13.02;8.80;;;;;;;7.58;100.00;100737.91;6351583;28;20040;-77
2022/10/16 05:19:38;;;;;;;16.67;8.30;;;;;;;7.57;100.00;100736.19;6351140;28;20047;-80
2022/10/16 05:22:38;;;;;;;13.70;8.18;;;;;;;7.63;100.00;100742.94;6350620;28;20115;-80
2022/10/16 05:25:39;;;;;;;14.90;7.85;;;;;;;7.70;100.00;100751.31;6350977;28;20028;-80
2022/10/16 05:28:40;;;;;;;12.93;7.68;;;;;;;7.73;100.00;100748.63;6350770;28;20092;-80
2022/10/16 05:31:41;;;;;;;12.93;7.30;;;;;;;7.77;100.00;100747.59;6349577;28;20047;-81
2022/10/16 05:34:41;;;;;;;12.13;6.97;;;;;;;7.80;100.00;100753.53;6349665;28;20067;-80
2022/10/16 05:37:42;;;;;;;12.10;6.95;;;;;;;7.87;100.00;100759.34;6350858;28;20105;-76
2022/10/16 05:40:43;;;;;;;14.45;7.32;;;;;;;7.91;100.00;100766.09;6349562;28;20035;-81
2022/10/16 05:43:44;;;;;;;12.52;7.40;;;;;;;7.93;100.00;100755.63;6350643;28;20040;-81
2022/10/16 05:46:46;;;;;;;14.02;7.00;;;;;;;8.00;100.00;100772.69;6349774;28;20086;-80
2022/10/16 05:49:47;;;;;;;10.40;6.90;;;;;;;8.05;100.00;100775.94;6383733;27;20047;-80
2022/10/16 05:52:47;;;;;;;14.80;7.43;;;;;;;8.10;100.00;100778.38;6349479;28;20129;-80
2022/10/16 05:55:52;;;;;;;15.82;7.07;;;;;;;8.20;100.00;100779.72;6349289;28;20689;-81
2022/10/16 05:58:55;;;;;;;17.65;7.28;;;;;;;8.26;100.00;100782.91;6349249;28;20040;-80
2022/10/16 06:01:56;;;;;;;14.85;7.80;;;;;;;8.33;100.00;100780.91;6349054;28;20043;-81
2022/10/16 06:04:57;;;;;;;13.75;7.13;;;;;;;8.48;100.00;100789.88;6349087;28;20036;-81
2022/10/16 06:07:57;;;;;;;17.55;8.30;;;;;;;8.57;100.00;100791.28;6348953;28;20505;-81
2022/10/16 06:11:03;;;;;;;14.38;8.18;;;;;;;8.72;100.00;100795.84;6350083;28;20588;-76
2022/10/16 06:14:06;;;;;;;12.38;7.40;;;;;;;8.85;100.00;100798.78;6350001;28;20063;-76
2022/10/16 06:17:07;;;;;;;15.55;7.63;;;;;;;9.03;100.00;100798.00;6350162;28;20459;-76
2022/10/16 06:20:08;;;;;;;17.85;8.45;;;;;;;9.17;100.00;100799.16;6348865;28;20047;-76
2022/10/16 06:23:09;;;;;;;14.48;8.55;;;;;;;9.37;100.00;100816.50;6349790;28;20055;-76
2022/10/16 06:26:12;;;;;;;16.63;8.73;;;;;;;9.51;100.00;100814.16;6331941;28;20052;-76
2022/10/16 06:29:13;;;;;;;18.35;10.05;;;;;;;9.63;100.00;100825.78;6349847;28;20063;-76
2022/10/16 06:32:16;;;;;;;15.63;8.60;;;;;;;9.77;100.00;100826.00;6348852;28;20053;-76
2022/10/16 06:35:16;;;;;;;13.52;8.00;;;;;;;9.92;100.00;100827.06;6348568;28;20054;-76
2022/10/16 06:38:17;;;;;;;12.20;7.90;;;;;;;10.04;100.00;100833.47;6347927;28;20142;-76
2022/10/16 06:41:20;;;;;;;9.85;5.63;;;;;;;10.19;100.00;100837.13;6347710;28;20051;-81
2022/10/16 06:44:21;;;;;;;10.30;6.22;;;;;;;10.31;100.00;100835.75;6349116;28;20047;-80
2022/10/16 06:47:22;;;;;;;10.30;6.75;;;;;;;10.45;100.00;100836.78;6346889;28;20509;-81
2022/10/16 06:50:23;;;;;;;10.73;5.90;;;;;;;10.57;100.00;100837.13;6347540;28;20043;-80
2022/10/16 06:53:25;;;;;;;12.35;6.28;;;;;;;10.71;100.00;100841.66;6348710;28;20047;-81
2022/10/16 06:56:27;;;;;;;10.60;6.30;;;;;;;10.82;100.00;100853.25;6347237;28;20120;-76
2022/10/16 06:59:30;;;;;;;13.35;6.35;;;;;;;11.05;100.00;100844.28;6344882;28;20055;-76
2022/10/16 07:02:31;;;;;;;9.63;6.68;;;;;;;11.22;100.00;100850.41;6322974;28;20050;-80
2022/10/16 07:05:32;;;;;;;12.23;6.90;;;;;;;11.37;100.00;100860.09;6323055;28;20032;-80
2022/10/16 07:08:34;;;;;;;9.68;5.60;;;;;;;11.53;100.00;100867.13;6324332;28;20036;-76
2022/10/16 07:11:37;;;;;;;7.85;5.25;;;;;;;11.66;100.00;100865.56;6346814;28;20051;-76
2022/10/16 07:14:38;;;;;;;8.88;5.47;;;;;;;11.85;100.00;100873.28;6347744;28;20059;-81
2022/10/16 07:17:38;;;;;;;11.75;7.03;;;;;;;12.01;100.00;100876.78;6346714;28;20059;-80
2022/10/16 07:20:39;;;;;;;10.90;6.43;;;;;;;12.18;100.00;100868.03;6363979;27;20051;-76
2022/10/16 07:23:41;;;;;;;9.82;5.85;;;;;;;12.35;100.00;100876.72;6346579;28;20497;-80
2022/10/16 07:26:45;;;;;;;10.50;5.80;;;;;;;12.57;100.00;100881.63;6363712;27;20134;-76
2022/10/16 07:29:47;;;;;;;8.45;5.95;;;;;;;12.78;100.00;100880.38;6363513;27;20056;-76
2022/10/16 07:32:48;;;;;;;10.23;5.88;;;;;;;12.95;100.00;100875.97;6345926;28;20131;-81
2022/10/16 07:35:53;;;;;;;9.77;5.50;;;;;;;13.09;100.00;100878.63;6346084;28;20052;-76
2022/10/16 07:38:53;;;;;;;8.68;5.22;;;;;;;13.34;100.00;100879.81;6346280;28;20100;-76
2022/10/16 07:41:54;;;;;;;8.95;5.60;;;;;;;13.54;100.00;100882.09;6347358;28;20043;-81
2022/10/16 07:44:55;;;;;;;11.73;5.28;;;;;;;13.68;100.00;100881.28;6347408;28;20474;-81
2022/10/16 07:47:56;;;;;;;9.55;5.90;;;;;;;13.90;100.00;100886.91;6346064;28;20070;-81
2022/10/16 07:51:01;;;;;;;9.50;5.47;;;;;;;14.09;100.00;100880.50;6347169;28;20047;-81
2022/10/16 07:54:01;;;;;;;8.57;5.22;;;;;;;14.34;100.00;100879.78;6363268;27;20043;-81
2022/10/16 07:57:02;;;;;;;14.18;5.90;;;;;;;14.50;100.00;100884.91;6347147;28;20051;-81
2022/10/16 08:00:03;;;;;;;10.73;6.32;;;;;;;14.68;100.00;100885.53;6347020;28;20062;-76
2022/10/16 08:03:04;;;;;;;8.82;5.32;;;;;;;14.78;98.34;100891.03;6345552;28;20071;-77
2022/10/16 08:06:05;;;;;;;7.75;4.93;;;;;;;14.99;100.00;100892.25;6345883;28;20043;-81
2022/10/16 08:09:07;;;;;;;8.85;5.30;;;;;;;15.23;99.79;100897.63;6345790;28;20043;-81
2022/10/16 08:12:10;;;;;;;9.95;5.03;;;;;;;15.30;91.18;100896.31;6345742;28;20044;-77
2022/10/16 08:15:11;;;;;;;7.90;4.72;;;;;;;15.59;92.95;100897.91;6346940;28;20040;-76
2022/10/16 08:18:14;;;;;;;8.80;4.80;;;;;;;15.78;89.17;100908.84;6346968;28;20043;-76
2022/10/16 08:21:18;;;;;;;9.15;4.28;;;;;;;15.96;84.64;100911.16;6345559;28;20043;-76
2022/10/16 08:24:18;;;;;;;6.60;3.70;;;;;;;16.16;84.58;100915.00;6346844;28;20074;-76
2022/10/16 08:27:19;;;;;;;4.88;3.20;;;;;;;16.17;75.70;100919.34;6344839;28;20051;-76
2022/10/16 08:30:21;;;;;;;5.65;3.40;;;;;;;16.20;74.72;100922.59;6346166;28;20067;-76
2022/10/16 08:33:22;;;;;;;5.85;3.75;;;;;;;16.42;76.14;100918.44;6346712;28;20052;-76
2022/10/16 08:36:23;;;;;;;6.75;3.13;;;;;;;16.63;74.70;100918.66;6345426;28;20491;-76
2022/10/16 08:39:24;;;;;;;5.68;3.03;;;;;;;16.82;72.13;100920.81;6345264;28;20070;-80
2022/10/16 08:42:28;;;;;;;6.97;3.83;;;;;;;16.97;70.43;100927.63;6328370;28;20457;-80
2022/10/16 08:45:34;;;;;;;6.45;3.38;;;;;;;17.07;71.30;100920.72;6348947;28;20036;-80
2022/10/16 08:48:42;;;;;;;6.43;3.67;;;;;;;17.19;68.41;100916.28;6349504;28;20047;-76
2022/10/16 08:51:46;;;;;;;4.88;3.10;;;;;;;17.31;68.27;100917.16;6333059;28;20413;-77
2022/10/16 08:54:53;;;;;;;8.48;3.70;;;;;;;17.39;68.83;100917.44;6384450;27;20391;-76
2022/10/16 08:57:57;;;;;;;6.40;3.55;;;;;;;17.51;67.33;100910.38;6350104;28;20043;-76
2022/10/16 09:01:04;;;;;;;5.80;3.28;;;;;;;17.72;64.16;100918.44;6351086;28;20096;-80
2022/10/16 09:04:13;;;;;;;8.15;3.50;;;;;;;17.81;65.89;100916.88;6349948;28;20107;-80
2022/10/16 09:07:38;;;;;;;5.45;3.63;;;;;;;18.06;67.00;100932.53;6351112;28;20047;-76
2022/10/16 09:10:49;;;;;;;4.55;3.20;;;;;;;18.28;61.99;100928.19;6349714;28;20040;-76
2022/10/16 09:13:57;;;;;;;4.82;3.03;;;;;;;18.30;60.38;100928.91;6332475;28;20067;-80
2022/10/16 09:17:11;;;;;;;7.20;3.83;;;;;;;18.26;60.66;100936.25;6350887;28;20042;-80
2022/10/16 09:20:31;;;;;;;5.80;3.83;;;;;;;18.45;61.18;100937.38;6349565;28;20071;-81
2022/10/16 09:23:36;;;;;;;4.15;3.00;;;;;;;18.48;59.58;100942.44;6350852;28;20043;-80
2022/10/16 09:26:37;;;;;;;6.10;3.42;;;;;;;18.61;61.09;100935.19;6332414;28;20059;-81
2022/10/16 09:29:37;;;;;;;10.00;3.78;;;;;;;18.81;62.37;100941.53;6349328;28;20046;-81
2022/10/16 09:32:39;;;;;;;6.43;3.45;;;;;;;18.77;57.77;100945.38;6349318;28;20078;-80
2022/10/16 09:35:49;;;;;;;6.95;2.70;;;;;;;18.80;54.67;100939.88;6350486;28;20069;-80
2022/10/16 09:50:26;;;;;;;7.43;3.22;;;;;;;19.24;55.09;100937.16;6402389;27;20696;-75
2022/10/16 09:53:45;;;;;;;3.22;2.20;;;;;;;19.26;50.39;100930.78;6368053;28;20039;-76
2022/10/16 09:56:51;;;;;;;4.47;2.47;;;;;;;19.49;48.96;100933.28;6369075;27;20043;-75
2022/10/16 09:59:55;;;;;;;4.05;2.33;;;;;;;19.41;48.43;100943.69;6367759;28;20170;-74
2022/10/16 10:02:56;;;;;;;3.90;2.38;;;;;;;19.64;48.44;100941.72;6367911;28;20382;-75
2022/10/16 10:05:56;;;;;;;3.13;2.23;;;;;;;19.86;48.99;100938.94;6367697;28;20039;-75
2022/10/16 10:09:05;;;;;;;6.32;3.92;;;;;;;19.91;49.26;100944.69;6359759;27;20043;-76
2022/10/16 10:12:27;;;;;;;9.82;6.53;;;;;;;19.94;51.00;100938.28;6342019;28;20544;-75
2022/10/16 10:15:33;;;;;;;;;;;;;;;20.18;50.30;100948.56;6342352;28;20054;-75
2022/10/16 10:18:34;;;;;;;3.20;2.40;;;;;;;20.30;50.10;100942.19;6358141;28;19927;-76
2022/10/16 10:21:38;;;;;;;8.33;4.50;;;;;;;20.26;48.74;100940.78;6337969;28;20139;-76
2022/10/16 10:24:39;;;;;;;5.40;3.72;;;;;;;20.09;50.37;100939.59;6324781;28;20066;-76
2022/10/16 10:28:06;;;;;;;3.83;2.25;;;;;;;20.14;51.55;100939.22;6342861;28;20052;-75
2022/10/16 10:47:54;;;;;;;5.47;2.40;;;;;;;20.54;48.64;100941.81;6396381;27;165171;-74
2022/10/16 10:51:03;;;;;;;5.85;2.38;;;;;;;20.74;45.88;100936.59;6350270;28;20051;-74
2022/10/16 10:54:10;;;;;;;3.20;2.13;;;;;;;20.81;47.01;100944.81;6358892;27;20421;-74
2022/10/16 10:57:35;;;;;;;4.10;2.47;;;;;;;20.77;44.66;100938.94;6394609;27;20514;-75
2022/10/16 11:00:42;;;;;;;2.75;1.88;;;;;;;20.88;47.35;100938.00;6376214;27;20413;-75
2022/10/16 11:04:13;;;;;;;2.30;1.80;;;;;;;20.86;47.19;100940.78;6376995;27;20054;-75
2022/10/16 11:07:19;;;;;;;8.07;2.60;;;;;;;21.07;46.93;100940.63;6368893;28;20120;-75
2022/10/16 11:10:22;;;;;;;3.53;1.95;;;;;;;21.09;44.42;100932.56;6333316;28;20051;-75
2022/10/16 11:13:44;;;;;;;3.00;2.30;;;;;;;21.14;44.62;100922.34;6368660;28;20063;-74
2022/10/16 11:16:53;;;;;;;2.95;2.03;;;;;;;21.12;44.70;100929.59;6350430;28;20047;-78
2022/10/16 11:19:57;;;;;;;4.75;2.40;;;;;;;20.92;44.43;100928.78;6333306;28;20051;-78
2022/10/16 11:23:29;;;;;;;2.85;2.00;;;;;;;21.09;44.31;100928.06;6333332;28;20103;-78
2022/10/16 11:26:35;;;;;;;3.15;2.38;;;;;;;21.00;45.39;100923.63;6324086;28;20061;-78
2022/10/16 11:29:45;;;;;;;4.93;2.10;;;;;;;21.10;44.75;100920.94;6350656;28;20054;-78
2022/10/16 11:33:12;;;;;;;3.15;2.10;;;;;;;21.20;44.87;100918.28;6368855;28;20043;-78
2022/10/16 11:36:33;;;;;;;3.58;1.92;;;;;;;21.18;45.48;100907.81;6368914;28;20035;-78
2022/10/16 11:39:36;;;;;;;3.92;2.47;;;;;;;21.28;45.56;100905.97;6333418;28;20047;-78
2022/10/16 11:42:43;;;;;;;4.22;2.20;;;;;;;21.20;46.15;100907.66;6350202;28;20063;-78
2022/10/16 11:45:51;;;;;;;3.63;2.13;;;;;;;21.39;46.56;100909.44;6348258;28;20051;-75
2022/10/16 11:49:11;;;;;;;5.20;2.72;;;;;;;21.61;43.67;100917.09;6333050;28;20046;-75
2022/10/16 11:52:31;;;;;;;5.70;2.40;;;;;;;21.48;44.25;100905.97;6333141;28;20372;-75
2022/10/16 11:55:37;;;;;;;4.30;2.42;;;;;;;21.19;46.02;100905.97;6351397;28;20063;-75
2022/10/16 11:58:41;;;;;;;4.15;2.78;;;;;;;21.22;45.42;100911.84;6333153;28;20116;-75
2022/10/16 12:01:59;;;;;;;4.40;2.30;;;;;;;21.27;45.38;100899.00;6333057;28;20055;-76
2022/10/16 12:05:21;;;;;;;6.90;2.55;;;;;;;21.22;46.00;100900.41;6332452;28;20139;-76
2022/10/16 12:08:23;;;;;;;3.83;2.28;;;;;;;21.42;48.75;100895.91;6315827;28;20156;-75
2022/10/16 12:11:38;;;;;;;3.30;2.35;;;;;;;21.44;45.12;100897.47;6332920;28;20044;-75
2022/10/16 12:14:39;;;;;;;4.20;2.22;;;;;;;21.40;44.92;100895.22;6332283;28;20054;-75
2022/10/16 12:17:40;;;;;;;4.32;2.25;;;;;;;21.44;44.67;100880.69;6357540;27;20088;-75
2022/10/16 12:20:45;;;;;;;4.53;2.67;;;;;;;21.35;46.30;100874.38;6356736;27;20436;-76
2022/10/16 12:23:48;;;;;;;3.97;2.38;;;;;;;21.48;46.45;100887.41;6356529;27;20118;-79
2022/10/16 12:26:51;;;;;;;2.90;2.30;;;;;;;21.41;45.43;100887.06;6356875;27;20057;-79
2022/10/16 12:30:08;;;;;;;3.30;2.08;;;;;;;21.38;45.45;100894.50;6357550;27;20065;-78
2022/10/16 12:33:23;;;;;;;3.03;2.08;;;;;;;21.31;45.94;100899.53;6375606;27;20074;-79
2022/10/16 12:36:34;;;;;;;4.40;2.30;;;;;;;21.34;46.57;100899.25;6375509;27;20469;-78
2022/10/16 12:39:38;;;;;;;2.25;1.98;;;;;;;21.41;47.49;100892.38;6375541;27;20450;-78
2022/10/16 12:42:39;;;;;;;9.05;2.80;;;;;;;21.30;47.07;100897.88;6375366;27;20040;-79
2022/10/16 12:45:43;;;;;;;3.45;2.20;;;;;;;21.27;46.03;100892.84;6374885;27;20086;-79
2022/10/16 12:48:45;;;;;;;3.40;2.30;;;;;;;21.15;46.72;100894.84;6356945;27;20489;-79
2022/10/16 12:51:46;;;;;;;4.28;2.22;;;;;;;21.26;46.25;100901.78;6339576;27;20083;-75
2022/10/16 12:54:47;;;;;;;3.13;2.30;;;;;;;21.30;49.16;100890.75;6339322;27;20123;-75
2022/10/16 12:57:50;;;;;;;3.23;2.13;;;;;;;21.23;49.20;100897.63;6373932;27;20475;-75
2022/10/16 13:00:59;;;;;;;3.85;2.40;;;;;;;21.17;46.94;100898.19;6356363;27;20043;-75
2022/10/16 13:04:37;;;;;;;4.50;2.20;;;;;;;21.03;47.71;100896.78;6356322;27;20050;-76
2022/10/16 13:08:01;;;;;;;12.00;2.30;;;;;;;20.97;46.33;100909.78;6356394;27;20039;-78
2022/10/16 13:11:13;;;;;;;4.20;2.40;;;;;;;20.87;45.96;100905.31;6356259;27;20055;-78
2022/10/16 13:14:34;;;;;;;4.47;2.00;;;;;;;20.84;46.96;100910.09;6356182;27;20047;-79
2022/10/16 13:17:35;;;;;;;3.40;2.10;;;;;;;20.88;47.68;100908.81;6374400;27;20482;-76
2022/10/16 13:20:43;;;;;;;3.87;2.10;;;;;;;20.92;48.30;100910.22;6339005;27;20290;-78
2022/10/16 13:24:19;;;;;;;3.85;2.10;;;;;;;20.60;44.97;100907.81;6355718;27;20089;-79
2022/10/16 13:27:25;;;;;;;4.03;2.35;;;;;;;20.69;47.29;100902.53;6342560;27;20065;-78
2022/10/16 13:30:29;;;;;;;3.33;2.00;;;;;;;20.75;50.34;100900.28;6355711;27;20058;-75
2022/10/16 13:33:38;;;;;;;3.13;2.20;;;;;;;20.74;47.38;100899.47;6355402;27;20043;-75
2022/10/16 13:36:50;;;;;;;5.15;2.70;;;;;;;20.66;48.85;100902.78;6355369;27;20043;-75
2022/10/16 13:39:51;;;;;;;3.85;2.33;;;;;;;20.64;48.80;100901.28;6373824;27;20039;-78
2022/10/16 13:42:53;;;;;;;2.97;2.10;;;;;;;20.63;50.79;100895.13;6373885;27;20452;-75
2022/10/16 13:46:01;;;;;;;4.30;2.13;;;;;;;20.61;49.94;100897.09;6373356;27;20514;-75
2022/10/16 13:49:16;;;;;;;4.68;2.40;;;;;;;20.41;49.36;100896.19;6355306;27;20039;-78
2022/10/16 13:52:21;;;;;;;8.70;4.55;;;;;;;20.42;48.17;100902.31;6338261;27;20100;-79
2022/10/16 13:55:22;;;;;;;4.88;2.78;;;;;;;20.32;48.73;100899.63;6338059;27;20043;-78
2022/10/16 13:58:23;;;;;;;9.35;2.17;;;;;;;20.24;49.19;100899.47;6338342;27;20051;-79
2022/10/16 14:01:27;;;;;;;4.07;2.47;;;;;;;20.27;47.88;100902.72;6354544;27;20039;-79
2022/10/16 14:04:32;;;;;;;6.97;2.78;;;;;;;20.09;49.96;100901.69;6354460;27;20522;-79
2022/10/16 14:07:34;;;;;;;8.00;3.03;;;;;;;19.95;53.64;100897.56;6372666;27;20051;-75
2022/10/16 14:10:35;;;;;;;6.20;2.95;;;;;;;19.87;50.24;100894.75;6351513;27;20035;-75
2022/10/16 14:13:46;;;;;;;3.30;2.43;;;;;;;19.89;51.45;100898.13;6372319;27;20112;-75
2022/10/16 14:16:47;;;;;;;15.02;2.83;;;;;;;19.73;51.60;100902.09;6366088;27;20055;-76
2022/10/16 14:19:50;;;;;;;5.03;2.43;;;;;;;19.75;51.55;100901.97;6347381;27;20412;-75
2022/10/16 14:23:02;;;;;;;3.75;2.40;;;;;;;19.65;54.30;100901.88;6364805;27;20554;-75
2022/10/16 14:26:09;;;;;;;4.28;2.80;;;;;;;19.64;49.99;100907.31;6350420;27;20035;-75
2022/10/16 14:29:18;;;;;;;4.18;2.45;;;;;;;19.58;49.56;100906.06;6336906;27;20047;-75
2022/10/16 14:32:28;;;;;;;3.10;2.30;;;;;;;19.53;49.82;100909.06;6370149;27;20046;-75
2022/10/16 14:35:37;;;;;;;3.33;2.45;;;;;;;19.43;53.14;100908.16;6353919;28;20055;-74
2022/10/16 14:38:47;;;;;;;4.13;2.13;;;;;;;19.30;51.78;100905.72;6348521;28;20509;-75
2022/10/16 14:41:51;;;;;;;3.95;2.00;;;;;;;19.14;52.28;100908.00;6354111;28;20039;-75